createdAt,value
2023-04-23T00:01:13.498Z,989.63
2023-04-23T00:06:13.462Z,989.53
2023-04-23T00:11:13.351Z,989.47
2023-04-23T00:16:13.428Z,989.46
2023-04-23T00:21:13.282Z,989.44
2023-04-23T00:26:16.220Z,989.33
2023-04-23T00:31:13.137Z,989.33
2023-04-23T00:36:13.047Z,989.27
2023-04-23T00:41:12.941Z,989.28
2023-04-23T00:46:13.232Z,989.26
2023-04-23T00:51:12.808Z,989.19
2023-04-23T00:56:12.812Z,989.17
2023-04-23T01:01:12.667Z,989.13
2023-04-23T01:06:12.734Z,989.09
2023-04-23T01:11:12.690Z,989.12
2023-04-23T01:16:12.555Z,989.08
2023-04-23T01:21:12.478Z,989.10
2023-04-23T01:26:15.401Z,989.15
2023-04-23T01:31:12.368Z,989.11
2023-04-23T01:36:12.233Z,989.21
2023-04-23T01:41:12.149Z,989.12
2023-04-23T01:46:12.143Z,989.03
2023-04-23T01:51:12.093Z,989.03
2023-04-23T01:56:12.092Z,989.12
2023-04-23T02:01:11.941Z,989.04
2023-04-23T02:06:12.052Z,988.99
2023-04-23T02:11:11.773Z,988.97
2023-04-23T02:16:12.685Z,988.98
2023-04-23T02:21:11.622Z,988.96
2023-04-23T02:26:14.629Z,988.90
2023-04-23T02:31:11.521Z,988.93
2023-04-23T02:36:11.536Z,988.87
2023-04-23T02:41:11.376Z,988.91
2023-04-23T02:46:11.454Z,988.91
2023-04-23T02:51:11.295Z,988.94
2023-04-23T02:56:11.298Z,988.90
2023-04-23T03:01:11.376Z,988.88
2023-04-23T03:06:11.217Z,988.93
2023-04-23T03:11:11.008Z,988.99
2023-04-23T03:16:11.007Z,988.99
2023-04-23T03:21:18.451Z,988.95
2023-04-23T03:26:13.796Z,989.03
2023-04-23T03:31:10.852Z,989.04
2023-04-23T03:36:10.723Z,989.03
2023-04-23T03:41:10.739Z,989.02
2023-04-23T03:46:10.539Z,989.05
2023-04-23T03:51:10.556Z,989.02
2023-04-23T03:56:10.546Z,989.06
2023-04-23T04:01:10.365Z,989.01
2023-04-23T04:06:10.305Z,989.05
2023-04-23T04:11:10.323Z,989.07
2023-04-23T04:16:10.208Z,989.09
2023-04-23T04:21:10.204Z,989.03
2023-04-23T04:26:13.177Z,989.06
2023-04-23T04:31:09.980Z,989.04
2023-04-23T04:36:09.966Z,989.08
2023-04-23T04:41:09.835Z,989.08
2023-04-23T04:46:09.892Z,989.10
2023-04-23T04:51:09.701Z,989.17
2023-04-23T04:56:09.670Z,989.22
2023-04-23T05:01:09.600Z,989.18
2023-04-23T05:06:09.477Z,989.14
2023-04-23T05:11:09.408Z,989.19
2023-04-23T05:16:09.808Z,989.21
2023-04-23T05:21:09.397Z,989.34
2023-04-23T05:26:12.321Z,989.32
2023-04-23T05:31:09.085Z,989.35
2023-04-23T05:36:10.363Z,989.34
2023-04-23T05:41:09.097Z,989.42
2023-04-23T05:46:09.233Z,989.48
2023-04-23T05:51:09.015Z,989.54
2023-04-23T06:06:26.405Z,989.47
2023-04-23T06:11:26.223Z,989.48
2023-04-23T06:16:26.631Z,989.46
2023-04-23T06:21:25.913Z,989.45
2023-04-23T06:26:25.877Z,989.49
2023-04-23T06:31:25.756Z,989.49
2023-04-23T06:36:25.753Z,989.50
2023-04-23T06:41:25.525Z,989.48
2023-04-23T06:46:25.627Z,989.65
2023-04-23T06:51:25.718Z,989.70
2023-04-23T06:56:28.387Z,990.16
2023-04-23T07:01:25.423Z,990.11
2023-04-23T07:06:25.334Z,990.04
2023-04-23T07:11:25.286Z,990.07
2023-04-23T07:16:25.548Z,990.05
2023-04-23T07:21:25.084Z,990.06
2023-04-23T07:26:25.165Z,990.09
2023-04-23T07:31:25.104Z,990.06
2023-04-23T07:36:24.919Z,990.17
2023-04-23T07:41:24.813Z,990.10
2023-04-23T07:46:25.677Z,990.10
2023-04-23T07:51:24.720Z,990.20
2023-04-23T07:56:27.619Z,990.22
2023-04-23T08:01:24.606Z,990.29
2023-04-23T08:06:24.542Z,990.24
2023-04-23T08:11:24.543Z,990.26
2023-04-23T08:16:24.431Z,990.30
2023-04-23T08:21:24.398Z,990.23
2023-04-23T08:26:24.257Z,990.28
2023-04-23T08:31:26.937Z,990.26
2023-04-23T08:36:24.182Z,990.21
2023-04-23T08:41:24.053Z,990.22
2023-04-23T08:46:23.999Z,990.07
2023-04-23T08:51:24.098Z,990.14
2023-04-23T08:56:27.097Z,990.07
2023-04-23T09:01:25.518Z,990.12
2023-04-23T09:06:24.900Z,990.11
2023-04-23T09:11:23.642Z,990.20
2023-04-23T09:16:23.640Z,990.11
2023-04-23T09:21:23.445Z,990.10
2023-04-23T09:26:23.476Z,990.15
2023-04-23T09:31:23.392Z,990.12
2023-04-23T09:36:23.328Z,990.04
2023-04-23T09:41:23.264Z,990.11
2023-04-23T09:46:23.265Z,990.04
2023-04-23T09:51:23.250Z,990.03
2023-04-23T09:56:26.057Z,989.88
2023-04-23T10:01:23.278Z,989.94
2023-04-23T10:06:40.800Z,989.83
2023-04-23T10:11:25.364Z,989.74
2023-04-23T10:16:25.514Z,989.79
2023-04-23T10:21:24.628Z,989.83
2023-04-23T10:26:22.603Z,989.77
2023-04-23T10:31:22.680Z,989.71
2023-04-23T10:36:22.516Z,989.65
2023-04-23T10:41:22.488Z,989.66
2023-04-23T10:46:22.472Z,989.67
2023-04-23T10:56:26.321Z,989.54
2023-04-23T11:01:22.345Z,989.51
2023-04-23T11:06:22.136Z,989.53
2023-04-23T11:11:22.041Z,989.42
2023-04-23T11:16:22.449Z,989.38
2023-04-23T11:21:22.000Z,989.29
2023-04-23T11:26:21.872Z,989.28
2023-04-23T11:31:21.860Z,989.11
2023-04-23T11:36:21.786Z,989.05
2023-04-23T11:41:21.698Z,989.01
2023-04-23T11:46:21.672Z,988.97
2023-04-23T11:51:36.677Z,988.91
2023-04-23T11:56:24.653Z,988.90
2023-04-23T12:01:21.385Z,988.87
2023-04-23T12:06:21.363Z,988.74
2023-04-23T12:11:21.213Z,988.68
2023-04-23T12:16:21.292Z,988.67
2023-04-23T12:21:22.239Z,988.62
2023-04-23T12:26:21.190Z,988.60
2023-04-23T12:31:22.039Z,988.60
2023-04-23T12:36:21.071Z,988.50
2023-04-23T12:41:20.915Z,988.41
2023-04-23T12:46:21.006Z,988.42
2023-04-23T12:51:20.756Z,988.40
2023-04-23T12:56:23.865Z,988.28
2023-04-23T13:01:20.663Z,988.24
2023-04-23T13:06:20.641Z,988.21
2023-04-23T13:11:20.458Z,988.10
2023-04-23T13:16:20.612Z,987.98
2023-04-23T13:21:20.305Z,987.94
2023-04-23T13:26:20.275Z,987.87
2023-04-23T13:31:20.221Z,987.85
2023-04-23T13:36:20.247Z,987.70
2023-04-23T13:41:20.094Z,987.62
2023-04-23T13:46:20.106Z,987.59
2023-04-23T13:51:34.147Z,987.42
2023-04-23T13:56:24.067Z,987.40
2023-04-23T14:01:19.961Z,987.31
2023-04-23T14:06:19.822Z,987.29
2023-04-23T14:11:19.684Z,987.16
2023-04-23T14:16:19.695Z,987.11
2023-04-23T14:21:19.590Z,986.98
2023-04-23T14:26:19.571Z,986.95
2023-04-23T14:31:19.445Z,986.90
2023-04-23T14:36:19.485Z,986.74
2023-04-23T14:41:19.300Z,986.65
2023-04-23T14:46:19.455Z,986.63
2023-04-23T14:51:19.204Z,986.51
2023-04-23T14:56:22.101Z,986.51
2023-04-23T15:01:19.105Z,986.50
2023-04-23T15:06:18.964Z,986.44
2023-04-23T15:11:18.965Z,986.37
2023-04-23T15:16:23.402Z,986.26
2023-04-23T15:21:19.924Z,986.24
2023-04-23T15:26:18.690Z,986.14
2023-04-23T15:31:18.969Z,986.08
2023-04-23T15:36:19.471Z,986.12
2023-04-23T15:41:18.537Z,986.00
2023-04-23T15:46:18.537Z,986.03
2023-04-23T15:51:18.424Z,985.89
2023-04-23T15:56:21.335Z,985.92
2023-04-23T16:01:18.263Z,985.99
2023-04-23T16:06:18.219Z,986.00
2023-04-23T16:11:18.152Z,986.03
2023-04-23T16:16:18.115Z,985.89
2023-04-23T16:21:18.131Z,985.88
2023-04-23T16:26:18.621Z,985.83
2023-04-23T16:31:17.891Z,985.73
2023-04-23T16:36:17.805Z,985.75
2023-04-23T16:41:17.709Z,985.67
2023-04-23T16:46:17.744Z,985.61
2023-04-23T16:51:17.571Z,985.51
2023-04-23T16:56:20.688Z,985.52
2023-04-23T17:01:17.458Z,985.53
2023-04-23T17:06:17.506Z,985.49
2023-04-23T17:11:17.515Z,985.51
2023-04-23T17:16:17.381Z,985.48
2023-04-23T17:21:17.246Z,985.48
2023-04-23T17:26:17.141Z,985.48
2023-04-23T17:31:17.097Z,985.42
2023-04-23T17:36:17.158Z,985.39
2023-04-23T17:41:16.933Z,985.44
2023-04-23T17:46:16.937Z,985.41
2023-04-23T17:51:16.902Z,985.39
2023-04-23T17:56:19.956Z,985.32
2023-04-23T18:01:16.676Z,985.31
2023-04-23T18:06:16.652Z,985.29
2023-04-23T18:11:16.495Z,985.29
2023-04-23T18:16:16.513Z,985.31
2023-04-23T18:21:16.346Z,985.38
2023-04-23T18:26:16.384Z,985.40
2023-04-23T18:31:16.277Z,985.35
2023-04-23T18:36:16.192Z,985.30
2023-04-23T18:41:16.226Z,985.39
2023-04-23T18:46:16.073Z,985.43
2023-04-23T18:51:15.966Z,985.45
2023-04-23T18:56:18.985Z,985.49
2023-04-23T19:01:15.922Z,985.55
2023-04-23T19:06:15.937Z,985.53
2023-04-23T19:11:15.756Z,985.56
2023-04-23T19:16:15.737Z,985.49
2023-04-23T19:21:15.550Z,985.41
2023-04-23T19:26:15.523Z,985.40
2023-04-23T19:31:15.459Z,985.38
2023-04-23T19:36:15.466Z,985.39
2023-04-23T19:41:15.392Z,985.39
2023-04-23T19:46:15.353Z,985.30
2023-04-23T19:51:15.204Z,985.31
2023-04-23T19:56:18.103Z,985.32
2023-04-23T20:01:15.022Z,985.22
2023-04-23T20:06:15.012Z,985.20
2023-04-23T20:11:14.873Z,985.27
2023-04-23T20:16:15.338Z,985.22
2023-04-23T20:21:14.772Z,985.21
2023-04-23T20:26:14.868Z,985.16
2023-04-23T20:31:14.657Z,985.13
2023-04-23T20:36:14.720Z,985.04
2023-04-23T20:41:14.526Z,985.04
2023-04-23T20:46:14.542Z,984.94
2023-04-23T20:51:14.383Z,984.98
2023-04-23T20:56:17.381Z,985.01
2023-04-23T21:01:14.304Z,985.17
2023-04-23T21:06:14.229Z,985.17
2023-04-23T21:11:14.106Z,985.09
2023-04-23T21:16:14.125Z,985.07
2023-04-23T21:21:14.109Z,985.15
2023-04-23T21:26:13.993Z,985.17
2023-04-23T21:31:13.992Z,985.17
2023-04-23T21:36:14.250Z,985.34
2023-04-23T21:41:13.754Z,985.66
2023-04-23T21:46:13.663Z,985.99
2023-04-23T21:51:13.573Z,985.95
2023-04-23T21:56:16.559Z,985.89
2023-04-23T22:01:13.495Z,985.91
2023-04-23T22:06:13.453Z,985.93
2023-04-23T22:11:13.348Z,986.07
2023-04-23T22:16:26.848Z,986.08
2023-04-23T22:21:14.345Z,985.93
2023-04-23T22:26:13.236Z,985.71
2023-04-23T22:31:13.193Z,985.39
2023-04-23T22:36:13.007Z,985.43
2023-04-23T22:41:13.169Z,985.59
2023-04-23T22:46:12.949Z,985.63
2023-04-23T22:51:12.899Z,985.48
2023-04-23T22:56:15.805Z,985.50
2023-04-23T23:01:12.841Z,985.50
2023-04-23T23:06:12.771Z,985.56
2023-04-23T23:11:12.621Z,985.51
2023-04-23T23:16:12.671Z,985.42
2023-04-23T23:21:12.434Z,985.51
2023-04-23T23:26:12.432Z,985.46
2023-04-23T23:31:12.458Z,985.40
2023-04-23T23:36:12.359Z,985.38
2023-04-23T23:41:12.207Z,985.27
2023-04-23T23:46:12.302Z,985.26
2023-04-23T23:51:12.148Z,985.25
2023-04-23T23:56:15.131Z,985.22
